sensor_id;sensor_type;location;lat;lon;timestamp;temperature;humidity
75010;DHT22;63564;46.840;18.336;2023-05-15T00:01:54;12.36;99.99
75010;DHT22;63564;46.840;18.336;2023-05-15T00:04:54;12.37;99.99
75010;DHT22;63564;46.840;18.336;2023-05-15T00:07:55;12.43;99.99
75010;DHT22;63564;46.840;18.336;2023-05-15T00:10:55;12.49;99.99
75010;DHT22;63564;46.840;18.336;2023-05-15T00:13:56;12.43;99.99
75010;DHT22;63564;46.840;18.336;2023-05-15T00:16:56;12.43;99.99
75010;DHT22;63564;46.840;18.336;2023-05-15T00:19:56;12.41;99.99
75010;DHT22;63564;46.840;18.336;2023-05-15T00:22:58;12.40;99.99
75010;DHT22;63564;46.840;18.336;2023-05-15T00:25:59;12.39;99.99
75010;DHT22;63564;46.840;18.336;2023-05-15T00:28:59;12.40;99.99
75010;DHT22;63564;46.840;18.336;2023-05-15T00:32:00;12.41;99.99
75010;DHT22;63564;46.840;18.336;2023-05-15T00:35:00;12.34;99.99
75010;DHT22;63564;46.840;18.336;2023-05-15T00:38:00;12.25;99.99
75010;DHT22;63564;46.840;18.336;2023-05-15T00:41:01;12.32;99.99
75010;DHT22;63564;46.840;18.336;2023-05-15T00:44:02;12.25;99.99
75010;DHT22;63564;46.840;18.336;2023-05-15T00:47:04;12.40;99.99
75010;DHT22;63564;46.840;18.336;2023-05-15T00:50:07;12.34;99.99
75010;DHT22;63564;46.840;18.336;2023-05-15T00:53:07;12.37;99.99
75010;DHT22;63564;46.840;18.336;2023-05-15T00:56:09;12.51;99.99
75010;DHT22;63564;46.840;18.336;2023-05-15T00:59:10;12.41;99.99
75010;DHT22;63564;46.840;18.336;2023-05-15T01:02:14;12.26;99.99
75010;DHT22;63564;46.840;18.336;2023-05-15T01:05:15;12.26;99.99
75010;DHT22;63564;46.840;18.336;2023-05-15T01:08:25;12.26;99.99
75010;DHT22;63564;46.840;18.336;2023-05-15T01:11:27;12.28;99.99
75010;DHT22;63564;46.840;18.336;2023-05-15T01:14:34;12.16;99.99
75010;DHT22;63564;46.840;18.336;2023-05-15T01:17:35;12.06;99.99
75010;DHT22;63564;46.840;18.336;2023-05-15T01:30:26;12.23;99.99
75010;DHT22;63564;46.840;18.336;2023-05-15T01:33:37;12.20;99.99
75010;DHT22;63564;46.840;18.336;2023-05-15T01:36:47;12.25;99.99
75010;DHT22;63564;46.840;18.336;2023-05-15T01:39:54;12.23;99.99
75010;DHT22;63564;46.840;18.336;2023-05-15T01:43:02;12.25;99.99
75010;DHT22;63564;46.840;18.336;2023-05-15T01:46:06;12.26;99.99
75010;DHT22;63564;46.840;18.336;2023-05-15T01:49:08;12.23;99.99
75010;DHT22;63564;46.840;18.336;2023-05-15T01:52:37;12.26;99.99
75010;DHT22;63564;46.840;18.336;2023-05-15T01:55:39;12.26;99.99
75010;DHT22;63564;46.840;18.336;2023-05-15T01:58:41;12.23;99.99
75010;DHT22;63564;46.840;18.336;2023-05-15T02:01:43;12.28;99.99
75010;DHT22;63564;46.840;18.336;2023-05-15T02:04:45;12.29;99.99
75010;DHT22;63564;46.840;18.336;2023-05-15T02:07:47;12.37;99.99
75010;DHT22;63564;46.840;18.336;2023-05-15T02:10:48;12.46;99.99
75010;DHT22;63564;46.840;18.336;2023-05-15T02:13:49;12.49;99.99
75010;DHT22;63564;46.840;18.336;2023-05-15T02:16:50;12.47;99.99
75010;DHT22;63564;46.840;18.336;2023-05-15T02:19:51;12.59;99.99
75010;DHT22;63564;46.840;18.336;2023-05-15T02:22:52;12.56;99.99
75010;DHT22;63564;46.840;18.336;2023-05-15T02:26:11;12.43;99.99
75010;DHT22;63564;46.840;18.336;2023-05-15T02:29:53;12.51;99.99
75010;DHT22;63564;46.840;18.336;2023-05-15T02:36:08;12.43;99.99
75010;DHT22;63564;46.840;18.336;2023-05-15T02:39:11;12.46;99.99
75010;DHT22;63564;46.840;18.336;2023-05-15T02:42:13;12.51;99.99
75010;DHT22;63564;46.840;18.336;2023-05-15T02:45:15;12.49;99.99
75010;DHT22;63564;46.840;18.336;2023-05-15T02:48:16;12.50;99.99
75010;DHT22;63564;46.840;18.336;2023-05-15T02:51:17;12.64;99.99
75010;DHT22;63564;46.840;18.336;2023-05-15T02:54:18;12.54;99.99
75010;DHT22;63564;46.840;18.336;2023-05-15T02:57:19;12.54;99.99
75010;DHT22;63564;46.840;18.336;2023-05-15T03:00:20;12.50;99.99
75010;DHT22;63564;46.840;18.336;2023-05-15T03:03:20;12.40;99.99
75010;DHT22;63564;46.840;18.336;2023-05-15T03:06:20;12.37;99.99
75010;DHT22;63564;46.840;18.336;2023-05-15T03:09:21;12.50;99.99
75010;DHT22;63564;46.840;18.336;2023-05-15T03:12:21;12.59;99.99
75010;DHT22;63564;46.840;18.336;2023-05-15T03:15:22;12.46;99.99
75010;DHT22;63564;46.840;18.336;2023-05-15T03:18:22;12.44;99.99
75010;DHT22;63564;46.840;18.336;2023-05-15T03:21:22;12.41;99.99
75010;DHT22;63564;46.840;18.336;2023-05-15T03:24:23;12.36;99.99
75010;DHT22;63564;46.840;18.336;2023-05-15T03:27:23;12.36;99.99
75010;DHT22;63564;46.840;18.336;2023-05-15T03:30:23;12.39;99.99
75010;DHT22;63564;46.840;18.336;2023-05-15T03:33:24;12.46;99.99
75010;DHT22;63564;46.840;18.336;2023-05-15T03:36:24;12.44;99.99
75010;DHT22;63564;46.840;18.336;2023-05-15T03:39:25;12.47;99.99
75010;DHT22;63564;46.840;18.336;2023-05-15T03:42:25;12.43;99.99
75010;DHT22;63564;46.840;18.336;2023-05-15T03:45:26;12.40;99.99
75010;DHT22;63564;46.840;18.336;2023-05-15T03:48:27;12.39;99.99
75010;DHT22;63564;46.840;18.336;2023-05-15T03:51:27;12.41;99.99
75010;DHT22;63564;46.840;18.336;2023-05-15T03:54:28;12.34;99.99
75010;DHT22;63564;46.840;18.336;2023-05-15T03:57:29;12.34;99.99
75010;DHT22;63564;46.840;18.336;2023-05-15T04:00:31;12.33;99.99
75010;DHT22;63564;46.840;18.336;2023-05-15T04:03:31;12.36;99.99
75010;DHT22;63564;46.840;18.336;2023-05-15T04:06:32;12.32;99.99
75010;DHT22;63564;46.840;18.336;2023-05-15T04:09:32;12.30;99.99
75010;DHT22;63564;46.840;18.336;2023-05-15T04:12:33;12.30;99.99
75010;DHT22;63564;46.840;18.336;2023-05-15T04:15:34;12.30;99.99
75010;DHT22;63564;46.840;18.336;2023-05-15T04:18:34;12.29;99.99
75010;DHT22;63564;46.840;18.336;2023-05-15T04:21:35;12.30;99.99
75010;DHT22;63564;46.840;18.336;2023-05-15T04:24:35;12.32;99.99
75010;DHT22;63564;46.840;18.336;2023-05-15T04:27:36;12.29;99.99
75010;DHT22;63564;46.840;18.336;2023-05-15T04:30:37;12.30;99.99
75010;DHT22;63564;46.840;18.336;2023-05-15T04:33:56;12.33;99.99
75010;DHT22;63564;46.840;18.336;2023-05-15T04:36:56;12.36;99.99
75010;DHT22;63564;46.840;18.336;2023-05-15T04:39:57;12.36;99.99
75010;DHT22;63564;46.840;18.336;2023-05-15T04:42:57;12.37;99.99
75010;DHT22;63564;46.840;18.336;2023-05-15T04:45:57;12.40;99.99
75010;DHT22;63564;46.840;18.336;2023-05-15T04:48:58;12.40;99.99
75010;DHT22;63564;46.840;18.336;2023-05-15T04:51:58;12.39;99.99
75010;DHT22;63564;46.840;18.336;2023-05-15T04:54:58;12.39;99.99
75010;DHT22;63564;46.840;18.336;2023-05-15T04:57:59;12.39;99.99
75010;DHT22;63564;46.840;18.336;2023-05-15T05:00:59;12.43;99.99
75010;DHT22;63564;46.840;18.336;2023-05-15T05:04:00;12.43;99.99
75010;DHT22;63564;46.840;18.336;2023-05-15T05:07:00;12.43;99.99
75010;DHT22;63564;46.840;18.336;2023-05-15T05:10:03;12.47;99.99
75010;DHT22;63564;46.840;18.336;2023-05-15T05:13:04;12.53;99.99
75010;DHT22;63564;46.840;18.336;2023-05-15T05:16:05;12.50;99.99
75010;DHT22;63564;46.840;18.336;2023-05-15T05:19:05;12.53;99.99
75010;DHT22;63564;46.840;18.336;2023-05-15T05:22:06;12.56;99.99
75010;DHT22;63564;46.840;18.336;2023-05-15T05:25:07;12.63;99.99
75010;DHT22;63564;46.840;18.336;2023-05-15T05:28:07;12.70;99.99
75010;DHT22;63564;46.840;18.336;2023-05-15T05:31:08;12.68;99.99
75010;DHT22;63564;46.840;18.336;2023-05-15T05:34:08;12.71;99.99
75010;DHT22;63564;46.840;18.336;2023-05-15T05:37:08;12.76;99.99
75010;DHT22;63564;46.840;18.336;2023-05-15T05:40:09;12.81;99.99
75010;DHT22;63564;46.840;18.336;2023-05-15T05:43:10;12.83;99.99
75010;DHT22;63564;46.840;18.336;2023-05-15T05:46:10;12.97;99.99
75010;DHT22;63564;46.840;18.336;2023-05-15T05:49:10;13.06;99.99
75010;DHT22;63564;46.840;18.336;2023-05-15T05:52:11;13.19;99.99
75010;DHT22;63564;46.840;18.336;2023-05-15T05:55:11;13.27;99.99
75010;DHT22;63564;46.840;18.336;2023-05-15T05:58:12;13.23;99.99
75010;DHT22;63564;46.840;18.336;2023-05-15T06:01:12;13.06;99.22
75010;DHT22;63564;46.840;18.336;2023-05-15T06:04:13;13.08;99.99
75010;DHT22;63564;46.840;18.336;2023-05-15T06:07:14;13.09;99.96
75010;DHT22;63564;46.840;18.336;2023-05-15T06:10:21;13.22;99.88
75010;DHT22;63564;46.840;18.336;2023-05-15T06:13:23;13.32;99.99
75010;DHT22;63564;46.840;18.336;2023-05-15T06:16:23;13.35;99.79
75010;DHT22;63564;46.840;18.336;2023-05-15T06:19:23;13.43;99.99
75010;DHT22;63564;46.840;18.336;2023-05-15T06:22:24;13.50;99.84
75010;DHT22;63564;46.840;18.336;2023-05-15T06:25:24;13.64;99.91
75010;DHT22;63564;46.840;18.336;2023-05-15T06:28:25;13.98;98.03
75010;DHT22;63564;46.840;18.336;2023-05-15T06:31:25;13.94;97.29
75010;DHT22;63564;46.840;18.336;2023-05-15T06:34:26;13.69;97.92
75010;DHT22;63564;46.840;18.336;2023-05-15T06:37:26;13.64;99.90
75010;DHT22;63564;46.840;18.336;2023-05-15T06:40:28;13.53;97.94
75010;DHT22;63564;46.840;18.336;2023-05-15T06:43:28;13.42;97.81
75010;DHT22;63564;46.840;18.336;2023-05-15T06:46:28;13.47;97.02
75010;DHT22;63564;46.840;18.336;2023-05-15T06:49:29;13.75;96.87
75010;DHT22;63564;46.840;18.336;2023-05-15T06:52:29;14.19;94.37
75010;DHT22;63564;46.840;18.336;2023-05-15T06:55:30;14.15;93.49
75010;DHT22;63564;46.840;18.336;2023-05-15T06:58:30;14.11;95.16
75010;DHT22;63564;46.840;18.336;2023-05-15T07:01:31;14.09;95.60
75010;DHT22;63564;46.840;18.336;2023-05-15T07:04:31;14.18;94.81
75010;DHT22;63564;46.840;18.336;2023-05-15T07:07:32;14.15;94.67
75010;DHT22;63564;46.840;18.336;2023-05-15T07:10:32;13.98;93.12
75010;DHT22;63564;46.840;18.336;2023-05-15T07:13:33;14.02;93.94
75010;DHT22;63564;46.840;18.336;2023-05-15T07:16:34;14.40;92.86
75010;DHT22;63564;46.840;18.336;2023-05-15T07:19:34;14.84;91.08
75010;DHT22;63564;46.840;18.336;2023-05-15T07:22:34;14.88;90.74
75010;DHT22;63564;46.840;18.336;2023-05-15T07:25:35;14.62;91.42
75010;DHT22;63564;46.840;18.336;2023-05-15T07:28:35;14.50;90.64
75010;DHT22;63564;46.840;18.336;2023-05-15T07:31:36;14.63;91.86
75010;DHT22;63564;46.840;18.336;2023-05-15T07:34:37;14.77;92.98
75010;DHT22;63564;46.840;18.336;2023-05-15T07:37:38;14.77;92.58
75010;DHT22;63564;46.840;18.336;2023-05-15T07:40:38;14.77;92.84
75010;DHT22;63564;46.840;18.336;2023-05-15T07:43:39;14.70;91.51
75010;DHT22;63564;46.840;18.336;2023-05-15T07:46:39;14.80;92.06
75010;DHT22;63564;46.840;18.336;2023-05-15T07:49:40;14.70;90.31
75010;DHT22;63564;46.840;18.336;2023-05-15T07:52:40;14.83;90.66
75010;DHT22;63564;46.840;18.336;2023-05-15T07:55:42;15.04;91.17
75010;DHT22;63564;46.840;18.336;2023-05-15T07:58:43;15.27;90.31
75010;DHT22;63564;46.840;18.336;2023-05-15T08:01:43;15.38;88.44
75010;DHT22;63564;46.840;18.336;2023-05-15T08:04:43;15.32;90.25
75010;DHT22;63564;46.840;18.336;2023-05-15T08:07:44;15.27;88.59
75010;DHT22;63564;46.840;18.336;2023-05-15T08:10:44;14.95;90.68
75010;DHT22;63564;46.840;18.336;2023-05-15T08:13:45;14.87;90.92
75010;DHT22;63564;46.840;18.336;2023-05-15T08:16:48;14.98;90.95
75010;DHT22;63564;46.840;18.336;2023-05-15T08:19:49;15.35;90.92
75010;DHT22;63564;46.840;18.336;2023-05-15T08:22:50;15.73;89.26
75010;DHT22;63564;46.840;18.336;2023-05-15T08:25:50;15.69;88.73
75010;DHT22;63564;46.840;18.336;2023-05-15T08:28:51;15.12;88.80
75010;DHT22;63564;46.840;18.336;2023-05-15T08:31:51;15.04;89.67
75010;DHT22;63564;46.840;18.336;2023-05-15T08:34:52;15.32;88.49
75010;DHT22;63564;46.840;18.336;2023-05-15T08:37:52;15.51;88.00
75010;DHT22;63564;46.840;18.336;2023-05-15T08:40:56;15.89;88.51
75010;DHT22;63564;46.840;18.336;2023-05-15T08:43:57;15.73;86.81
75010;DHT22;63564;46.840;18.336;2023-05-15T08:46:58;15.60;87.05
75010;DHT22;63564;46.840;18.336;2023-05-15T08:50:07;15.53;86.62
75010;DHT22;63564;46.840;18.336;2023-05-15T08:53:12;15.60;87.06
75010;DHT22;63564;46.840;18.336;2023-05-15T08:56:13;15.76;87.25
75010;DHT22;63564;46.840;18.336;2023-05-15T08:59:13;16.07;87.30
75010;DHT22;63564;46.840;18.336;2023-05-15T09:02:14;16.80;85.99
75010;DHT22;63564;46.840;18.336;2023-05-15T09:05:35;16.89;85.53
75010;DHT22;63564;46.840;18.336;2023-05-15T09:08:46;16.62;86.32
75010;DHT22;63564;46.840;18.336;2023-05-15T09:11:59;16.29;85.68
75010;DHT22;63564;46.840;18.336;2023-05-15T09:15:11;16.29;85.82
75010;DHT22;63564;46.840;18.336;2023-05-15T09:18:17;16.08;86.47
75010;DHT22;63564;46.840;18.336;2023-05-15T09:21:26;16.13;86.92
75010;DHT22;63564;46.840;18.336;2023-05-15T09:24:27;16.08;87.29
75010;DHT22;63564;46.840;18.336;2023-05-15T09:27:41;16.34;88.03
75010;DHT22;63564;46.840;18.336;2023-05-15T09:30:43;16.82;86.30
75010;DHT22;63564;46.840;18.336;2023-05-15T09:33:45;16.92;83.94
75010;DHT22;63564;46.840;18.336;2023-05-15T09:36:46;17.16;83.44
75010;DHT22;63564;46.840;18.336;2023-05-15T09:39:46;17.07;84.02
75010;DHT22;63564;46.840;18.336;2023-05-15T09:42:52;17.21;82.52
75010;DHT22;63564;46.840;18.336;2023-05-15T09:45:53;17.19;84.14
75010;DHT22;63564;46.840;18.336;2023-05-15T09:48:54;17.41;82.21
75010;DHT22;63564;46.840;18.336;2023-05-15T09:51:58;18.27;81.60
75010;DHT22;63564;46.840;18.336;2023-05-15T09:54:59;18.30;81.33
75010;DHT22;63564;46.840;18.336;2023-05-15T09:58:08;17.72;81.18
75010;DHT22;63564;46.840;18.336;2023-05-15T10:01:10;17.16;81.55
75010;DHT22;63564;46.840;18.336;2023-05-15T10:04:12;16.92;86.52
75010;DHT22;63564;46.840;18.336;2023-05-15T10:07:40;16.94;86.58
75010;DHT22;63564;46.840;18.336;2023-05-15T10:10:40;17.23;85.91
75010;DHT22;63564;46.840;18.336;2023-05-15T10:13:41;17.23;86.32
75010;DHT22;63564;46.840;18.336;2023-05-15T10:16:42;17.34;84.25
75010;DHT22;63564;46.840;18.336;2023-05-15T10:19:44;17.72;81.41
75010;DHT22;63564;46.840;18.336;2023-05-15T10:22:48;18.20;81.94
75010;DHT22;63564;46.840;18.336;2023-05-15T10:26:01;18.32;82.30
75010;DHT22;63564;46.840;18.336;2023-05-15T10:29:17;17.74;81.26
75010;DHT22;63564;46.840;18.336;2023-05-15T10:32:18;18.00;81.39
75010;DHT22;63564;46.840;18.336;2023-05-15T10:35:20;17.65;82.44
75010;DHT22;63564;46.840;18.336;2023-05-15T10:38:21;17.32;82.80
75010;DHT22;63564;46.840;18.336;2023-05-15T10:41:23;17.71;83.84
75010;DHT22;63564;46.840;18.336;2023-05-15T10:44:25;17.58;83.13
75010;DHT22;63564;46.840;18.336;2023-05-15T10:47:29;17.37;84.17
75010;DHT22;63564;46.840;18.336;2023-05-15T10:50:29;16.97;82.89
75010;DHT22;63564;46.840;18.336;2023-05-15T10:53:31;16.82;82.99
75010;DHT22;63564;46.840;18.336;2023-05-15T10:56:32;16.83;82.09
75010;DHT22;63564;46.840;18.336;2023-05-15T10:59:33;17.11;82.87
75010;DHT22;63564;46.840;18.336;2023-05-15T11:02:37;17.10;81.55
75010;DHT22;63564;46.840;18.336;2023-05-15T11:06:07;17.00;83.17
75010;DHT22;63564;46.840;18.336;2023-05-15T11:12:54;17.24;81.87
75010;DHT22;63564;46.840;18.336;2023-05-15T11:15:55;17.44;81.20
75010;DHT22;63564;46.840;18.336;2023-05-15T11:18:56;17.54;79.66
75010;DHT22;63564;46.840;18.336;2023-05-15T11:22:16;17.54;80.15
75010;DHT22;63564;46.840;18.336;2023-05-15T11:25:16;17.32;81.42
75010;DHT22;63564;46.840;18.336;2023-05-15T11:28:21;17.45;81.07
75010;DHT22;63564;46.840;18.336;2023-05-15T11:31:28;17.38;79.62
75010;DHT22;63564;46.840;18.336;2023-05-15T11:34:33;17.19;80.84
75010;DHT22;63564;46.840;18.336;2023-05-15T11:37:46;17.23;79.95
75010;DHT22;63564;46.840;18.336;2023-05-15T11:40:57;17.40;80.64
75010;DHT22;63564;46.840;18.336;2023-05-15T11:44:00;17.41;79.44
75010;DHT22;63564;46.840;18.336;2023-05-15T11:47:00;17.69;80.49
75010;DHT22;63564;46.840;18.336;2023-05-15T11:50:03;17.65;80.37
75010;DHT22;63564;46.840;18.336;2023-05-15T11:53:05;17.67;78.90
75010;DHT22;63564;46.840;18.336;2023-05-15T11:56:05;17.62;78.50
75010;DHT22;63564;46.840;18.336;2023-05-15T11:59:09;17.99;77.26
75010;DHT22;63564;46.840;18.336;2023-05-15T12:02:11;18.16;76.88
75010;DHT22;63564;46.840;18.336;2023-05-15T12:05:11;18.30;75.37
75010;DHT22;63564;46.840;18.336;2023-05-15T12:08:12;18.07;76.71
75010;DHT22;63564;46.840;18.336;2023-05-15T12:11:13;18.76;77.27
75010;DHT22;63564;46.840;18.336;2023-05-15T12:14:13;19.08;73.74
75010;DHT22;63564;46.840;18.336;2023-05-15T12:17:14;18.88;75.85
75010;DHT22;63564;46.840;18.336;2023-05-15T12:20:16;18.60;75.01
75010;DHT22;63564;46.840;18.336;2023-05-15T12:23:20;18.84;74.28
75010;DHT22;63564;46.840;18.336;2023-05-15T12:26:21;17.95;77.10
75010;DHT22;63564;46.840;18.336;2023-05-15T12:29:22;18.00;76.33
75010;DHT22;63564;46.840;18.336;2023-05-15T12:32:23;18.51;76.54
75010;DHT22;63564;46.840;18.336;2023-05-15T12:35:25;18.38;73.73
75010;DHT22;63564;46.840;18.336;2023-05-15T12:38:25;19.33;72.83
75010;DHT22;63564;46.840;18.336;2023-05-15T12:41:28;19.63;73.51
75010;DHT22;63564;46.840;18.336;2023-05-15T12:44:30;19.71;73.99
75010;DHT22;63564;46.840;18.336;2023-05-15T12:47:30;19.61;71.09
75010;DHT22;63564;46.840;18.336;2023-05-15T12:50:32;19.12;72.31
75010;DHT22;63564;46.840;18.336;2023-05-15T12:53:33;19.41;73.47
75010;DHT22;63564;46.840;18.336;2023-05-15T12:56:34;20.22;69.54
75010;DHT22;63564;46.840;18.336;2023-05-15T12:59:34;20.11;68.40
75010;DHT22;63564;46.840;18.336;2023-05-15T13:02:35;20.90;64.11
75010;DHT22;63564;46.840;18.336;2023-05-15T13:05:36;20.06;68.37
75010;DHT22;63564;46.840;18.336;2023-05-15T13:08:40;19.99;71.45
75010;DHT22;63564;46.840;18.336;2023-05-15T13:11:44;20.39;69.26
75010;DHT22;63564;46.840;18.336;2023-05-15T13:14:46;19.60;69.72
75010;DHT22;63564;46.840;18.336;2023-05-15T13:17:47;20.44;68.22
75010;DHT22;63564;46.840;18.336;2023-05-15T13:20:49;20.19;67.46
75010;DHT22;63564;46.840;18.336;2023-05-15T13:23:52;21.70;61.57
75010;DHT22;63564;46.840;18.336;2023-05-15T13:26:53;21.02;65.63
75010;DHT22;63564;46.840;18.336;2023-05-15T13:29:54;21.47;62.89
75010;DHT22;63564;46.840;18.336;2023-05-15T13:32:55;21.02;61.92
75010;DHT22;63564;46.840;18.336;2023-05-15T13:35:55;20.02;66.70
75010;DHT22;63564;46.840;18.336;2023-05-15T13:38:56;20.77;65.33
75010;DHT22;63564;46.840;18.336;2023-05-15T13:41:56;20.71;67.12
75010;DHT22;63564;46.840;18.336;2023-05-15T13:44:57;21.19;62.64
75010;DHT22;63564;46.840;18.336;2023-05-15T13:47:58;21.05;63.78
75010;DHT22;63564;46.840;18.336;2023-05-15T13:50:58;20.84;65.12
75010;DHT22;63564;46.840;18.336;2023-05-15T13:53:58;19.92;69.44
75010;DHT22;63564;46.840;18.336;2023-05-15T13:56:59;20.06;66.83
75010;DHT22;63564;46.840;18.336;2023-05-15T14:00:00;20.40;67.83
75010;DHT22;63564;46.840;18.336;2023-05-15T14:03:01;19.86;67.74
75010;DHT22;63564;46.840;18.336;2023-05-15T14:06:01;20.13;68.16
75010;DHT22;63564;46.840;18.336;2023-05-15T14:09:01;19.56;71.67
75010;DHT22;63564;46.840;18.336;2023-05-15T14:12:02;19.54;70.22
75010;DHT22;63564;46.840;18.336;2023-05-15T14:15:03;19.45;72.25
75010;DHT22;63564;46.840;18.336;2023-05-15T14:18:03;19.09;72.86
75010;DHT22;63564;46.840;18.336;2023-05-15T14:21:04;19.22;73.96
75010;DHT22;63564;46.840;18.336;2023-05-15T14:24:05;18.60;73.35
75010;DHT22;63564;46.840;18.336;2023-05-15T14:27:05;18.67;73.13
75010;DHT22;63564;46.840;18.336;2023-05-15T14:30:06;19.03;74.71
75010;DHT22;63564;46.840;18.336;2023-05-15T14:33:06;19.31;72.93
75010;DHT22;63564;46.840;18.336;2023-05-15T14:36:07;18.99;72.81
75010;DHT22;63564;46.840;18.336;2023-05-15T14:39:07;18.92;72.13
75010;DHT22;63564;46.840;18.336;2023-05-15T14:42:08;19.22;72.48
75010;DHT22;63564;46.840;18.336;2023-05-15T14:45:08;19.38;67.87
75010;DHT22;63564;46.840;18.336;2023-05-15T14:48:09;19.03;72.09
75010;DHT22;63564;46.840;18.336;2023-05-15T14:51:10;18.40;72.32
75010;DHT22;63564;46.840;18.336;2023-05-15T14:54:11;18.45;71.25
75010;DHT22;63564;46.840;18.336;2023-05-15T14:57:11;18.89;71.21
75010;DHT22;63564;46.840;18.336;2023-05-15T15:00:12;18.69;71.50
75010;DHT22;63564;46.840;18.336;2023-05-15T15:03:13;18.81;71.57
75010;DHT22;63564;46.840;18.336;2023-05-15T15:06:13;19.09;71.41
75010;DHT22;63564;46.840;18.336;2023-05-15T15:09:14;19.15;72.40
75010;DHT22;63564;46.840;18.336;2023-05-15T15:12:14;18.99;72.03
75010;DHT22;63564;46.840;18.336;2023-05-15T15:15:17;18.62;72.53
75010;DHT22;63564;46.840;18.336;2023-05-15T15:18:17;18.57;70.83
75010;DHT22;63564;46.840;18.336;2023-05-15T15:21:19;18.67;75.14
75010;DHT22;63564;46.840;18.336;2023-05-15T15:24:20;18.60;71.99
75010;DHT22;63564;46.840;18.336;2023-05-15T15:27:20;18.48;73.64
75010;DHT22;63564;46.840;18.336;2023-05-15T15:30:20;18.62;74.92
75010;DHT22;63564;46.840;18.336;2023-05-15T15:33:21;18.75;71.91
75010;DHT22;63564;46.840;18.336;2023-05-15T15:36:22;18.71;72.91
75010;DHT22;63564;46.840;18.336;2023-05-15T15:39:22;18.95;68.00
75010;DHT22;63564;46.840;18.336;2023-05-15T15:42:23;18.55;72.91
75010;DHT22;63564;46.840;18.336;2023-05-15T15:45:23;18.48;73.68
75010;DHT22;63564;46.840;18.336;2023-05-15T15:48:24;18.58;78.38
75010;DHT22;63564;46.840;18.336;2023-05-15T15:51:24;18.67;71.75
75010;DHT22;63564;46.840;18.336;2023-05-15T15:54:25;18.17;75.34
75010;DHT22;63564;46.840;18.336;2023-05-15T15:57:26;18.32;75.09
75010;DHT22;63564;46.840;18.336;2023-05-15T16:00:27;18.51;70.55
75010;DHT22;63564;46.840;18.336;2023-05-15T16:03:27;18.41;73.14
75010;DHT22;63564;46.840;18.336;2023-05-15T16:06:27;18.33;75.57
75010;DHT22;63564;46.840;18.336;2023-05-15T16:09:28;18.27;77.32
75010;DHT22;63564;46.840;18.336;2023-05-15T16:12:28;18.45;80.36
75010;DHT22;63564;46.840;18.336;2023-05-15T16:15:29;18.51;78.12
75010;DHT22;63564;46.840;18.336;2023-05-15T16:18:29;18.33;80.28
75010;DHT22;63564;46.840;18.336;2023-05-15T16:21:29;18.20;76.17
75010;DHT22;63564;46.840;18.336;2023-05-15T16:24:30;18.05;78.49
75010;DHT22;63564;46.840;18.336;2023-05-15T16:27:30;17.99;77.22
75010;DHT22;63564;46.840;18.336;2023-05-15T16:30:31;18.02;79.93
75010;DHT22;63564;46.840;18.336;2023-05-15T16:33:31;18.14;79.61
75010;DHT22;63564;46.840;18.336;2023-05-15T16:36:32;17.96;82.30
75010;DHT22;63564;46.840;18.336;2023-05-15T16:39:35;17.81;83.25
75010;DHT22;63564;46.840;18.336;2023-05-15T16:42:37;17.64;82.04
75010;DHT22;63564;46.840;18.336;2023-05-15T16:45:38;17.55;81.59
75010;DHT22;63564;46.840;18.336;2023-05-15T16:48:39;17.54;80.85
75010;DHT22;63564;46.840;18.336;2023-05-15T16:51:39;17.64;78.98
75010;DHT22;63564;46.840;18.336;2023-05-15T16:54:40;17.51;78.75
75010;DHT22;63564;46.840;18.336;2023-05-15T16:57:42;17.44;80.43
75010;DHT22;63564;46.840;18.336;2023-05-15T17:00:42;17.40;81.16
75010;DHT22;63564;46.840;18.336;2023-05-15T17:03:43;17.61;79.61
75010;DHT22;63564;46.840;18.336;2023-05-15T17:06:43;17.69;77.21
75010;DHT22;63564;46.840;18.336;2023-05-15T17:09:44;17.71;80.44
75010;DHT22;63564;46.840;18.336;2023-05-15T17:12:44;17.81;76.46
75010;DHT22;63564;46.840;18.336;2023-05-15T17:15:44;17.75;76.64
75010;DHT22;63564;46.840;18.336;2023-05-15T17:18:46;17.55;78.33
75010;DHT22;63564;46.840;18.336;2023-05-15T17:21:46;17.48;79.57
75010;DHT22;63564;46.840;18.336;2023-05-15T17:24:48;17.32;79.93
75010;DHT22;63564;46.840;18.336;2023-05-15T17:27:48;17.27;80.70
75010;DHT22;63564;46.840;18.336;2023-05-15T17:30:49;17.10;81.23
75010;DHT22;63564;46.840;18.336;2023-05-15T17:33:49;17.26;81.45
75010;DHT22;63564;46.840;18.336;2023-05-15T17:36:50;17.20;79.46
75010;DHT22;63564;46.840;18.336;2023-05-15T17:39:51;17.14;80.36
75010;DHT22;63564;46.840;18.336;2023-05-15T17:42:51;16.80;81.66
75010;DHT22;63564;46.840;18.336;2023-05-15T17:45:52;16.75;82.10
75010;DHT22;63564;46.840;18.336;2023-05-15T17:48:52;16.80;81.80
75010;DHT22;63564;46.840;18.336;2023-05-15T17:51:53;16.77;82.31
75010;DHT22;63564;46.840;18.336;2023-05-15T17:54:53;16.66;83.21
75010;DHT22;63564;46.840;18.336;2023-05-15T17:57:54;16.47;84.58
75010;DHT22;63564;46.840;18.336;2023-05-15T18:00:54;16.45;84.50
75010;DHT22;63564;46.840;18.336;2023-05-15T18:03:55;16.45;84.23
75010;DHT22;63564;46.840;18.336;2023-05-15T18:06:55;16.51;81.54
75010;DHT22;63564;46.840;18.336;2023-05-15T18:09:55;16.47;81.72
75010;DHT22;63564;46.840;18.336;2023-05-15T18:12:56;16.40;81.37
75010;DHT22;63564;46.840;18.336;2023-05-15T18:15:57;16.40;81.95
75010;DHT22;63564;46.840;18.336;2023-05-15T18:18:58;16.40;82.05
75010;DHT22;63564;46.840;18.336;2023-05-15T18:21:58;16.25;82.41
75010;DHT22;63564;46.840;18.336;2023-05-15T18:25:02;16.17;83.29
75010;DHT22;63564;46.840;18.336;2023-05-15T18:28:02;16.06;83.77
75010;DHT22;63564;46.840;18.336;2023-05-15T18:31:03;16.06;84.22
75010;DHT22;63564;46.840;18.336;2023-05-15T18:34:04;16.00;84.15
75010;DHT22;63564;46.840;18.336;2023-05-15T18:37:04;15.96;84.62
75010;DHT22;63564;46.840;18.336;2023-05-15T18:40:05;15.94;84.76
75010;DHT22;63564;46.840;18.336;2023-05-15T18:43:05;15.90;85.10
75010;DHT22;63564;46.840;18.336;2023-05-15T18:46:06;15.82;85.36
75010;DHT22;63564;46.840;18.336;2023-05-15T18:49:07;15.76;85.35
75010;DHT22;63564;46.840;18.336;2023-05-15T18:52:07;15.74;86.35
75010;DHT22;63564;46.840;18.336;2023-05-15T18:55:08;15.72;86.22
75010;DHT22;63564;46.840;18.336;2023-05-15T18:58:11;15.63;87.44
75010;DHT22;63564;46.840;18.336;2023-05-15T19:01:11;15.60;87.41
75010;DHT22;63564;46.840;18.336;2023-05-15T19:04:12;15.55;87.30
75010;DHT22;63564;46.840;18.336;2023-05-15T19:07:12;15.56;87.10